sensor_id;sensor_type;location;lat;lon;timestamp;P1;durP1;ratioP1;P2;durP2;ratioP2
1204;SDS011;592;48.764;9.174;2023-03-16T00:02:07;21.73;;;14.77;;
1204;SDS011;592;48.764;9.174;2023-03-16T00:04:35;21.10;;;13.57;;
1204;SDS011;592;48.764;9.174;2023-03-16T00:07:04;19.87;;;14.10;;
1204;SDS011;592;48.764;9.174;2023-03-16T00:09:31;18.93;;;12.83;;
1204;SDS011;592;48.764;9.174;2023-03-16T00:11:58;18.03;;;13.23;;
1204;SDS011;592;48.764;9.174;2023-03-16T00:14:27;18.13;;;12.30;;
1204;SDS011;592;48.764;9.174;2023-03-16T00:16:54;17.40;;;12.40;;
1204;SDS011;592;48.764;9.174;2023-03-16T00:19:21;16.03;;;11.90;;
1204;SDS011;592;48.764;9.174;2023-03-16T00:21:47;15.97;;;12.10;;
1204;SDS011;592;48.764;9.174;2023-03-16T00:24:16;16.50;;;12.20;;
1204;SDS011;592;48.764;9.174;2023-03-16T00:26:43;14.33;;;11.30;;
1204;SDS011;592;48.764;9.174;2023-03-16T00:29:10;20.60;;;13.30;;
1204;SDS011;592;48.764;9.174;2023-03-16T00:31:37;15.30;;;11.57;;
1204;SDS011;592;48.764;9.174;2023-03-16T00:34:04;17.70;;;12.27;;
1204;SDS011;592;48.764;9.174;2023-03-16T00:36:30;18.40;;;12.10;;
1204;SDS011;592;48.764;9.174;2023-03-16T00:38:58;14.70;;;10.90;;
1204;SDS011;592;48.764;9.174;2023-03-16T00:41:26;17.33;;;12.37;;
1204;SDS011;592;48.764;9.174;2023-03-16T00:43:53;17.30;;;11.47;;
1204;SDS011;592;48.764;9.174;2023-03-16T00:46:19;16.13;;;12.00;;
1204;SDS011;592;48.764;9.174;2023-03-16T00:48:50;17.73;;;12.70;;
1204;SDS011;592;48.764;9.174;2023-03-16T00:51:17;17.83;;;11.57;;
1204;SDS011;592;48.764;9.174;2023-03-16T00:53:47;17.13;;;12.40;;
1204;SDS011;592;48.764;9.174;2023-03-16T00:56:14;19.47;;;13.37;;
1204;SDS011;592;48.764;9.174;2023-03-16T00:58:42;16.30;;;12.37;;
1204;SDS011;592;48.764;9.174;2023-03-16T01:01:10;20.33;;;14.67;;
1204;SDS011;592;48.764;9.174;2023-03-16T01:03:38;18.67;;;13.80;;
1204;SDS011;592;48.764;9.174;2023-03-16T01:06:06;16.83;;;11.77;;
1204;SDS011;592;48.764;9.174;2023-03-16T01:08:35;15.10;;;11.50;;
1204;SDS011;592;48.764;9.174;2023-03-16T01:11:03;16.63;;;11.00;;
1204;SDS011;592;48.764;9.174;2023-03-16T01:13:29;19.33;;;13.57;;
1204;SDS011;592;48.764;9.174;2023-03-16T01:15:58;19.27;;;13.80;;
1204;SDS011;592;48.764;9.174;2023-03-16T01:18:25;17.90;;;12.50;;
1204;SDS011;592;48.764;9.174;2023-03-16T01:20:52;19.67;;;14.10;;
1204;SDS011;592;48.764;9.174;2023-03-16T01:23:19;21.80;;;13.20;;
1204;SDS011;592;48.764;9.174;2023-03-16T01:25:46;20.40;;;14.03;;
1204;SDS011;592;48.764;9.174;2023-03-16T01:28:17;17.87;;;13.03;;
1204;SDS011;592;48.764;9.174;2023-03-16T01:30:44;20.00;;;13.67;;
1204;SDS011;592;48.764;9.174;2023-03-16T01:33:12;20.23;;;13.10;;
1204;SDS011;592;48.764;9.174;2023-03-16T01:35:39;18.00;;;13.00;;
1204;SDS011;592;48.764;9.174;2023-03-16T01:38:06;18.07;;;13.33;;
1204;SDS011;592;48.764;9.174;2023-03-16T01:40:33;18.00;;;12.87;;
1204;SDS011;592;48.764;9.174;2023-03-16T01:43:01;18.80;;;13.27;;
1204;SDS011;592;48.764;9.174;2023-03-16T01:48:36;17.17;;;12.57;;
1204;SDS011;592;48.764;9.174;2023-03-16T01:51:09;19.27;;;13.93;;
1204;SDS011;592;48.764;9.174;2023-03-16T01:53:40;20.43;;;13.90;;
1204;SDS011;592;48.764;9.174;2023-03-16T01:56:10;19.03;;;12.50;;
1204;SDS011;592;48.764;9.174;2023-03-16T01:58:41;21.57;;;14.00;;
1204;SDS011;592;48.764;9.174;2023-03-16T02:01:09;16.43;;;12.10;;
1204;SDS011;592;48.764;9.174;2023-03-16T02:03:39;19.13;;;13.20;;
1204;SDS011;592;48.764;9.174;2023-03-16T02:06:08;19.37;;;12.13;;
1204;SDS011;592;48.764;9.174;2023-03-16T02:08:38;19.77;;;13.27;;
1204;SDS011;592;48.764;9.174;2023-03-16T02:11:07;20.70;;;13.60;;
1204;SDS011;592;48.764;9.174;2023-03-16T02:13:35;22.27;;;13.03;;
1204;SDS011;592;48.764;9.174;2023-03-16T02:16:01;20.87;;;14.60;;
1204;SDS011;592;48.764;9.174;2023-03-16T02:18:30;24.67;;;15.83;;
1204;SDS011;592;48.764;9.174;2023-03-16T02:21:00;21.63;;;15.13;;
1204;SDS011;592;48.764;9.174;2023-03-16T02:23:32;21.10;;;14.90;;
1204;SDS011;592;48.764;9.174;2023-03-16T02:26:00;23.10;;;15.33;;
1204;SDS011;592;48.764;9.174;2023-03-16T02:28:33;22.87;;;16.07;;
1204;SDS011;592;48.764;9.174;2023-03-16T02:31:04;23.30;;;14.80;;
1204;SDS011;592;48.764;9.174;2023-03-16T02:33:32;22.87;;;16.47;;
1204;SDS011;592;48.764;9.174;2023-03-16T02:35:59;27.00;;;17.70;;
1204;SDS011;592;48.764;9.174;2023-03-16T02:38:26;20.57;;;15.23;;
1204;SDS011;592;48.764;9.174;2023-03-16T02:40:54;25.23;;;16.60;;
1204;SDS011;592;48.764;9.174;2023-03-16T02:43:25;24.13;;;16.20;;
1204;SDS011;592;48.764;9.174;2023-03-16T02:45:57;22.40;;;15.90;;
1204;SDS011;592;48.764;9.174;2023-03-16T02:48:30;25.07;;;15.87;;
1204;SDS011;592;48.764;9.174;2023-03-16T02:51:03;26.20;;;17.40;;
1204;SDS011;592;48.764;9.174;2023-03-16T02:53:29;27.20;;;18.27;;
1204;SDS011;592;48.764;9.174;2023-03-16T02:55:56;25.63;;;17.27;;
1204;SDS011;592;48.764;9.174;2023-03-16T02:58:23;25.40;;;17.70;;
1204;SDS011;592;48.764;9.174;2023-03-16T03:00:49;27.27;;;17.90;;
1204;SDS011;592;48.764;9.174;2023-03-16T03:03:17;31.20;;;19.80;;
1204;SDS011;592;48.764;9.174;2023-03-16T03:05:45;26.13;;;17.70;;
1204;SDS011;592;48.764;9.174;2023-03-16T03:08:12;30.90;;;18.57;;
1204;SDS011;592;48.764;9.174;2023-03-16T03:10:39;29.70;;;17.83;;
1204;SDS011;592;48.764;9.174;2023-03-16T03:13:06;26.57;;;18.97;;
1204;SDS011;592;48.764;9.174;2023-03-16T03:15:32;27.10;;;18.70;;
1204;SDS011;592;48.764;9.174;2023-03-16T03:17:59;29.73;;;19.57;;
1204;SDS011;592;48.764;9.174;2023-03-16T03:20:26;27.50;;;17.27;;
1204;SDS011;592;48.764;9.174;2023-03-16T03:22:54;24.43;;;17.40;;
1204;SDS011;592;48.764;9.174;2023-03-16T03:25:21;32.67;;;18.97;;
1204;SDS011;592;48.764;9.174;2023-03-16T03:27:49;27.27;;;18.77;;
1204;SDS011;592;48.764;9.174;2023-03-16T03:30:18;27.60;;;17.60;;
1204;SDS011;592;48.764;9.174;2023-03-16T03:32:46;29.03;;;18.00;;
1204;SDS011;592;48.764;9.174;2023-03-16T03:35:13;27.33;;;17.27;;
1204;SDS011;592;48.764;9.174;2023-03-16T03:37:41;25.07;;;17.40;;
1204;SDS011;592;48.764;9.174;2023-03-16T03:40:10;25.47;;;17.10;;
1204;SDS011;592;48.764;9.174;2023-03-16T03:42:39;29.40;;;18.90;;
1204;SDS011;592;48.764;9.174;2023-03-16T03:45:07;30.20;;;18.70;;
1204;SDS011;592;48.764;9.174;2023-03-16T03:47:36;28.43;;;18.80;;
1204;SDS011;592;48.764;9.174;2023-03-16T03:50:04;25.93;;;18.20;;
1204;SDS011;592;48.764;9.174;2023-03-16T03:52:31;27.47;;;18.77;;
1204;SDS011;592;48.764;9.174;2023-03-16T03:54:58;31.03;;;18.87;;
1204;SDS011;592;48.764;9.174;2023-03-16T03:57:26;27.03;;;18.53;;
1204;SDS011;592;48.764;9.174;2023-03-16T03:59:52;23.13;;;16.43;;
1204;SDS011;592;48.764;9.174;2023-03-16T04:02:19;27.53;;;16.93;;
1204;SDS011;592;48.764;9.174;2023-03-16T04:04:46;27.90;;;18.17;;
1204;SDS011;592;48.764;9.174;2023-03-16T04:07:13;29.60;;;18.37;;
1204;SDS011;592;48.764;9.174;2023-03-16T04:09:39;25.80;;;16.93;;
1204;SDS011;592;48.764;9.174;2023-03-16T04:12:06;25.00;;;17.87;;
1204;SDS011;592;48.764;9.174;2023-03-16T04:14:34;27.10;;;18.50;;
1204;SDS011;592;48.764;9.174;2023-03-16T04:17:01;27.37;;;18.27;;
1204;SDS011;592;48.764;9.174;2023-03-16T04:19:29;28.40;;;18.67;;
1204;SDS011;592;48.764;9.174;2023-03-16T04:21:55;26.50;;;18.40;;
1204;SDS011;592;48.764;9.174;2023-03-16T04:24:22;27.60;;;17.23;;
1204;SDS011;592;48.764;9.174;2023-03-16T04:26:49;28.00;;;18.00;;
1204;SDS011;592;48.764;9.174;2023-03-16T04:29:18;23.00;;;16.07;;
1204;SDS011;592;48.764;9.174;2023-03-16T04:31:46;23.90;;;16.90;;
1204;SDS011;592;48.764;9.174;2023-03-16T04:34:13;23.70;;;16.53;;
1204;SDS011;592;48.764;9.174;2023-03-16T04:36:40;25.30;;;17.00;;
1204;SDS011;592;48.764;9.174;2023-03-16T04:39:06;21.70;;;15.63;;
1204;SDS011;592;48.764;9.174;2023-03-16T04:41:34;24.13;;;16.90;;
1204;SDS011;592;48.764;9.174;2023-03-16T04:44:01;25.40;;;16.90;;
1204;SDS011;592;48.764;9.174;2023-03-16T04:46:28;25.83;;;16.33;;
1204;SDS011;592;48.764;9.174;2023-03-16T04:48:57;26.20;;;17.80;;
1204;SDS011;592;48.764;9.174;2023-03-16T04:51:23;26.53;;;17.70;;
1204;SDS011;592;48.764;9.174;2023-03-16T04:53:50;26.40;;;19.03;;
1204;SDS011;592;48.764;9.174;2023-03-16T04:56:17;30.77;;;18.60;;
1204;SDS011;592;48.764;9.174;2023-03-16T04:58:44;25.10;;;17.70;;
1204;SDS011;592;48.764;9.174;2023-03-16T05:01:11;28.57;;;17.07;;
1204;SDS011;592;48.764;9.174;2023-03-16T05:03:37;25.50;;;17.23;;
1204;SDS011;592;48.764;9.174;2023-03-16T05:06:06;21.83;;;15.60;;
1204;SDS011;592;48.764;9.174;2023-03-16T05:08:34;24.03;;;16.13;;
1204;SDS011;592;48.764;9.174;2023-03-16T05:11:00;27.93;;;16.30;;
1204;SDS011;592;48.764;9.174;2023-03-16T05:13:27;25.60;;;16.10;;
1204;SDS011;592;48.764;9.174;2023-03-16T05:15:54;27.40;;;16.73;;
1204;SDS011;592;48.764;9.174;2023-03-16T05:18:21;24.53;;;17.10;;
1204;SDS011;592;48.764;9.174;2023-03-16T05:20:49;26.20;;;17.00;;
1204;SDS011;592;48.764;9.174;2023-03-16T05:23:17;24.40;;;16.53;;
1204;SDS011;592;48.764;9.174;2023-03-16T05:25:45;24.90;;;16.40;;
1204;SDS011;592;48.764;9.174;2023-03-16T05:28:12;28.53;;;16.97;;
1204;SDS011;592;48.764;9.174;2023-03-16T05:30:39;24.77;;;16.50;;
1204;SDS011;592;48.764;9.174;2023-03-16T05:33:06;25.03;;;16.97;;
1204;SDS011;592;48.764;9.174;2023-03-16T05:35:33;23.90;;;16.03;;
1204;SDS011;592;48.764;9.174;2023-03-16T05:37:59;25.13;;;16.03;;
1204;SDS011;592;48.764;9.174;2023-03-16T05:40:28;24.57;;;16.20;;
1204;SDS011;592;48.764;9.174;2023-03-16T05:42:55;22.77;;;16.10;;
1204;SDS011;592;48.764;9.174;2023-03-16T05:45:24;27.03;;;16.10;;
1204;SDS011;592;48.764;9.174;2023-03-16T05:47:51;22.80;;;15.33;;
1204;SDS011;592;48.764;9.174;2023-03-16T05:50:18;23.47;;;15.77;;
1204;SDS011;592;48.764;9.174;2023-03-16T05:52:45;27.97;;;16.90;;
1204;SDS011;592;48.764;9.174;2023-03-16T05:55:12;22.70;;;14.90;;
1204;SDS011;592;48.764;9.174;2023-03-16T05:57:42;23.80;;;15.63;;
1204;SDS011;592;48.764;9.174;2023-03-16T06:00:09;25.17;;;16.40;;
1204;SDS011;592;48.764;9.174;2023-03-16T06:02:39;26.43;;;15.57;;
1204;SDS011;592;48.764;9.174;2023-03-16T06:05:07;23.30;;;15.20;;
1204;SDS011;592;48.764;9.174;2023-03-16T06:07:34;23.73;;;15.57;;
1204;SDS011;592;48.764;9.174;2023-03-16T06:10:01;22.87;;;15.37;;
1204;SDS011;592;48.764;9.174;2023-03-16T06:12:29;21.67;;;14.60;;
1204;SDS011;592;48.764;9.174;2023-03-16T06:14:57;23.63;;;15.87;;
1204;SDS011;592;48.764;9.174;2023-03-16T06:17:23;23.73;;;15.47;;
1204;SDS011;592;48.764;9.174;2023-03-16T06:19:50;33.17;;;16.73;;
1204;SDS011;592;48.764;9.174;2023-03-16T06:22:17;43.23;;;17.27;;
1204;SDS011;592;48.764;9.174;2023-03-16T06:24:43;29.20;;;17.20;;
1204;SDS011;592;48.764;9.174;2023-03-16T06:27:10;24.93;;;14.67;;
1204;SDS011;592;48.764;9.174;2023-03-16T06:29:37;25.23;;;15.93;;
1204;SDS011;592;48.764;9.174;2023-03-16T06:32:06;25.80;;;16.13;;
1204;SDS011;592;48.764;9.174;2023-03-16T06:34:32;23.53;;;15.73;;
1204;SDS011;592;48.764;9.174;2023-03-16T06:37:00;26.33;;;15.77;;
1204;SDS011;592;48.764;9.174;2023-03-16T06:39:27;24.40;;;15.43;;
1204;SDS011;592;48.764;9.174;2023-03-16T06:41:54;31.23;;;16.30;;
1204;SDS011;592;48.764;9.174;2023-03-16T06:44:21;25.23;;;15.97;;
1204;SDS011;592;48.764;9.174;2023-03-16T06:46:48;26.03;;;16.80;;
1204;SDS011;592;48.764;9.174;2023-03-16T06:49:16;24.10;;;14.90;;
1204;SDS011;592;48.764;9.174;2023-03-16T06:51:43;28.47;;;16.47;;
1204;SDS011;592;48.764;9.174;2023-03-16T06:54:09;24.53;;;15.67;;
1204;SDS011;592;48.764;9.174;2023-03-16T06:56:36;25.10;;;16.90;;
1204;SDS011;592;48.764;9.174;2023-03-16T06:59:03;25.30;;;16.23;;
1204;SDS011;592;48.764;9.174;2023-03-16T07:01:30;27.40;;;17.47;;
1204;SDS011;592;48.764;9.174;2023-03-16T07:03:56;25.07;;;15.87;;
1204;SDS011;592;48.764;9.174;2023-03-16T07:06:24;26.87;;;16.50;;
1204;SDS011;592;48.764;9.174;2023-03-16T07:08:51;24.27;;;15.17;;
1204;SDS011;592;48.764;9.174;2023-03-16T07:11:18;26.87;;;17.20;;
1204;SDS011;592;48.764;9.174;2023-03-16T07:13:44;26.83;;;16.53;;
1204;SDS011;592;48.764;9.174;2023-03-16T07:16:11;28.10;;;15.87;;
1204;SDS011;592;48.764;9.174;2023-03-16T07:18:38;26.87;;;17.17;;
1204;SDS011;592;48.764;9.174;2023-03-16T07:21:08;32.93;;;18.20;;
1204;SDS011;592;48.764;9.174;2023-03-16T07:23:36;26.47;;;17.77;;
1204;SDS011;592;48.764;9.174;2023-03-16T07:26:03;25.53;;;17.10;;
1204;SDS011;592;48.764;9.174;2023-03-16T07:28:32;27.40;;;16.23;;
1204;SDS011;592;48.764;9.174;2023-03-16T07:30:59;26.53;;;16.47;;
1204;SDS011;592;48.764;9.174;2023-03-16T07:33:25;27.13;;;16.70;;
1204;SDS011;592;48.764;9.174;2023-03-16T07:35:52;26.40;;;16.70;;
1204;SDS011;592;48.764;9.174;2023-03-16T07:38:19;27.20;;;18.03;;
1204;SDS011;592;48.764;9.174;2023-03-16T07:40:47;26.83;;;15.93;;
1204;SDS011;592;48.764;9.174;2023-03-16T07:43:16;24.13;;;16.40;;
1204;SDS011;592;48.764;9.174;2023-03-16T07:45:46;25.07;;;16.83;;
1204;SDS011;592;48.764;9.174;2023-03-16T07:48:14;22.10;;;14.67;;
1204;SDS011;592;48.764;9.174;2023-03-16T07:50:41;26.30;;;15.93;;
1204;SDS011;592;48.764;9.174;2023-03-16T07:53:08;24.93;;;15.30;;
1204;SDS011;592;48.764;9.174;2023-03-16T07:55:35;29.23;;;16.87;;
1204;SDS011;592;48.764;9.174;2023-03-16T07:58:04;25.00;;;16.53;;
1204;SDS011;592;48.764;9.174;2023-03-16T08:00:31;21.70;;;13.93;;
1204;SDS011;592;48.764;9.174;2023-03-16T08:02:57;21.60;;;14.17;;
1204;SDS011;592;48.764;9.174;2023-03-16T08:05:24;24.43;;;14.50;;
1204;SDS011;592;48.764;9.174;2023-03-16T08:07:51;21.60;;;13.30;;
1204;SDS011;592;48.764;9.174;2023-03-16T08:10:18;19.77;;;13.20;;
1204;SDS011;592;48.764;9.174;2023-03-16T08:12:45;19.97;;;12.80;;
1204;SDS011;592;48.764;9.174;2023-03-16T08:15:13;20.40;;;12.37;;
1204;SDS011;592;48.764;9.174;2023-03-16T08:17:40;19.57;;;12.70;;
1204;SDS011;592;48.764;9.174;2023-03-16T08:20:07;18.80;;;12.10;;
1204;SDS011;592;48.764;9.174;2023-03-16T08:22:38;17.03;;;11.20;;
1204;SDS011;592;48.764;9.174;2023-03-16T08:25:06;18.20;;;12.03;;
1204;SDS011;592;48.764;9.174;2023-03-16T08:27:34;18.77;;;12.00;;
1204;SDS011;592;48.764;9.174;2023-03-16T08:30:01;20.20;;;12.13;;
1204;SDS011;592;48.764;9.174;2023-03-16T08:32:31;18.43;;;11.90;;
1204;SDS011;592;48.764;9.174;2023-03-16T08:34:58;17.57;;;10.47;;
1204;SDS011;592;48.764;9.174;2023-03-16T08:37:25;14.07;;;9.20;;
1204;SDS011;592;48.764;9.174;2023-03-16T08:39:53;14.83;;;9.20;;
1204;SDS011;592;48.764;9.174;2023-03-16T08:42:20;15.33;;;9.70;;
1204;SDS011;592;48.764;9.174;2023-03-16T08:44:46;15.17;;;8.97;;
1204;SDS011;592;48.764;9.174;2023-03-16T08:47:13;14.93;;;9.43;;
1204;SDS011;592;48.764;9.174;2023-03-16T08:49:41;13.03;;;9.17;;
1204;SDS011;592;48.764;9.174;2023-03-16T08:52:08;16.13;;;8.80;;
1204;SDS011;592;48.764;9.174;2023-03-16T08:54:36;16.27;;;11.10;;
1204;SDS011;592;48.764;9.174;2023-03-16T08:57:03;13.63;;;8.23;;
1204;SDS011;592;48.764;9.174;2023-03-16T08:59:30;13.00;;;8.03;;
1204;SDS011;592;48.764;9.174;2023-03-16T09:01:57;14.27;;;9.07;;
1204;SDS011;592;48.764;9.174;2023-03-16T09:04:24;12.27;;;8.03;;
1204;SDS011;592;48.764;9.174;2023-03-16T09:06:53;12.77;;;8.23;;
1204;SDS011;592;48.764;9.174;2023-03-16T09:09:20;11.73;;;7.53;;
1204;SDS011;592;48.764;9.174;2023-03-16T09:11:47;11.37;;;7.47;;
1204;SDS011;592;48.764;9.174;2023-03-16T09:14:14;11.20;;;7.20;;
1204;SDS011;592;48.764;9.174;2023-03-16T09:16:42;10.67;;;6.87;;
1204;SDS011;592;48.764;9.174;2023-03-16T09:19:09;10.70;;;7.37;;
1204;SDS011;592;48.764;9.174;2023-03-16T09:21:37;12.70;;;6.77;;
1204;SDS011;592;48.764;9.174;2023-03-16T09:24:05;10.57;;;7.30;;
1204;SDS011;592;48.764;9.174;2023-03-16T09:26:33;10.70;;;7.13;;
1204;SDS011;592;48.764;9.174;2023-03-16T09:29:00;10.83;;;7.47;;
1204;SDS011;592;48.764;9.174;2023-03-16T09:31:27;10.20;;;6.30;;
1204;SDS011;592;48.764;9.174;2023-03-16T09:33:53;9.20;;;6.60;;
1204;SDS011;592;48.764;9.174;2023-03-16T09:36:20;13.17;;;7.47;;
1204;SDS011;592;48.764;9.174;2023-03-16T09:38:47;13.13;;;7.77;;
1204;SDS011;592;48.764;9.174;2023-03-16T09:41:20;11.20;;;7.27;;
1204;SDS011;592;48.764;9.174;2023-03-16T09:43:59;10.63;;;7.10;;
1204;SDS011;592;48.764;9.174;2023-03-16T09:46:33;10.97;;;7.57;;
1204;SDS011;592;48.764;9.174;2023-03-16T09:49:02;11.03;;;6.67;;
1204;SDS011;592;48.764;9.174;2023-03-16T09:51:34;10.57;;;6.80;;
1204;SDS011;592;48.764;9.174;2023-03-16T09:54:04;11.97;;;7.30;;
1204;SDS011;592;48.764;9.174;2023-03-16T09:56:42;12.30;;;7.10;;
1204;SDS011;592;48.764;9.174;2023-03-16T09:59:11;15.00;;;6.70;;
1204;SDS011;592;48.764;9.174;2023-03-16T10:01:42;10.97;;;6.70;;
1204;SDS011;592;48.764;9.174;2023-03-16T10:04:20;9.27;;;6.23;;
1204;SDS011;592;48.764;9.174;2023-03-16T10:07:02;11.03;;;6.50;;
1204;SDS011;592;48.764;9.174;2023-03-16T10:09:41;10.30;;;5.83;;
1204;SDS011;592;48.764;9.174;2023-03-16T10:12:14;10.37;;;6.40;;
1204;SDS011;592;48.764;9.174;2023-03-16T10:14:43;8.60;;;5.50;;
1204;SDS011;592;48.764;9.174;2023-03-16T10:17:16;15.07;;;6.60;;
1204;SDS011;592;48.764;9.174;2023-03-16T10:19:46;10.37;;;6.33;;
1204;SDS011;592;48.764;9.174;2023-03-16T10:22:19;11.13;;;7.03;;
1204;SDS011;592;48.764;9.174;2023-03-16T10:25:01;10.40;;;6.07;;
1204;SDS011;592;48.764;9.174;2023-03-16T10:27:34;8.83;;;6.60;;
1204;SDS011;592;48.764;9.174;2023-03-16T10:30:05;14.70;;;7.27;;
1204;SDS011;592;48.764;9.174;2023-03-16T10:32:42;13.00;;;6.80;;
1204;SDS011;592;48.764;9.174;2023-03-16T10:35:10;9.07;;;5.67;;
1204;SDS011;592;48.764;9.174;2023-03-16T10:37:47;13.10;;;6.60;;
1204;SDS011;592;48.764;9.174;2023-03-16T10:40:14;12.90;;;6.30;;
1204;SDS011;592;48.764;9.174;2023-03-16T10:42:48;9.80;;;5.60;;
1204;SDS011;592;48.764;9.174;2023-03-16T10:45:19;13.43;;;6.40;;
1204;SDS011;592;48.764;9.174;2023-03-16T10:47:51;9.33;;;5.70;;
1204;SDS011;592;48.764;9.174;2023-03-16T10:50:22;9.43;;;5.73;;
1204;SDS011;592;48.764;9.174;2023-03-16T10:52:53;13.03;;;6.67;;
1204;SDS011;592;48.764;9.174;2023-03-16T10:55:22;11.20;;;5.90;;
1204;SDS011;592;48.764;9.174;2023-03-16T10:57:54;7.70;;;4.50;;
1204;SDS011;592;48.764;9.174;2023-03-16T11:00:22;9.37;;;5.30;;
1204;SDS011;592;48.764;9.174;2023-03-16T11:02:53;8.50;;;5.03;;
1204;SDS011;592;48.764;9.174;2023-03-16T11:05:25;7.10;;;4.90;;
1204;SDS011;592;48.764;9.174;2023-03-16T11:07:56;12.80;;;4.90;;
1204;SDS011;592;48.764;9.174;2023-03-16T11:10:27;6.60;;;4.17;;
1204;SDS011;592;48.764;9.174;2023-03-16T11:13:01;5.77;;;4.10;;
1204;SDS011;592;48.764;9.174;2023-03-16T11:15:35;7.37;;;4.63;;
1204;SDS011;592;48.764;9.174;2023-03-16T11:18:07;9.20;;;4.53;;
1204;SDS011;592;48.764;9.174;2023-03-16T11:20:39;8.63;;;4.40;;
1204;SDS011;592;48.764;9.174;2023-03-16T11:23:08;7.23;;;4.13;;
1204;SDS011;592;48.764;9.174;2023-03-16T11:25:42;7.40;;;4.20;;
1204;SDS011;592;48.764;9.174;2023-03-16T11:28:16;6.37;;;3.80;;
1204;SDS011;592;48.764;9.174;2023-03-16T11:30:52;7.53;;;3.93;;
1204;SDS011;592;48.764;9.174;2023-03-16T11:33:26;6.50;;;3.60;;
1204;SDS011;592;48.764;9.174;2023-03-16T11:35:56;6.40;;;4.03;;
1204;SDS011;592;48.764;9.174;2023-03-16T11:38:32;6.30;;;4.03;;
1204;SDS011;592;48.764;9.174;2023-03-16T11:41:03;6.27;;;3.70;;
1204;SDS011;592;48.764;9.174;2023-03-16T11:43:41;7.53;;;3.93;;
1204;SDS011;592;48.764;9.174;2023-03-16T11:46:14;7.87;;;3.77;;
1204;SDS011;592;48.764;9.174;2023-03-16T11:48:50;5.73;;;3.50;;
1204;SDS011;592;48.764;9.174;2023-03-16T11:51:28;9.00;;;4.13;;
1204;SDS011;592;48.764;9.174;2023-03-16T11:54:05;8.20;;;4.32;;
1204;SDS011;592;48.764;9.174;2023-03-16T11:56:42;5.90;;;3.40;;
1204;SDS011;592;48.764;9.174;2023-03-16T11:59:23;27.43;;;8.47;;
1204;SDS011;592;48.764;9.174;2023-03-16T12:02:25;10.23;;;5.87;;
1204;SDS011;592;48.764;9.174;2023-03-16T12:05:21;6.90;;;4.60;;
1204;SDS011;592;48.764;9.174;2023-03-16T12:08:01;8.02;;;4.35;;
1204;SDS011;592;48.764;9.174;2023-03-16T12:10:39;6.73;;;4.00;;
1204;SDS011;592;48.764;9.174;2023-03-16T12:13:15;8.57;;;3.83;;
1204;SDS011;592;48.764;9.174;2023-03-16T12:15:57;6.70;;;3.83;;
1204;SDS011;592;48.764;9.174;2023-03-16T12:18:26;6.33;;;3.70;;
1204;SDS011;592;48.764;9.174;2023-03-16T12:21:01;5.80;;;3.50;;
1204;SDS011;592;48.764;9.174;2023-03-16T12:23:31;6.40;;;3.70;;
1204;SDS011;592;48.764;9.174;2023-03-16T12:26:01;5.43;;;3.87;;
1204;SDS011;592;48.764;9.174;2023-03-16T12:28:28;6.73;;;4.00;;
1204;SDS011;592;48.764;9.174;2023-03-16T12:31:01;5.57;;;3.70;;
1204;SDS011;592;48.764;9.174;2023-03-16T12:33:36;7.73;;;3.47;;
1204;SDS011;592;48.764;9.174;2023-03-16T12:36:21;7.13;;;3.50;;
1204;SDS011;592;48.764;9.174;2023-03-16T12:39:05;7.20;;;3.73;;
1204;SDS011;592;48.764;9.174;2023-03-16T12:41:37;8.07;;;3.43;;
1204;SDS011;592;48.764;9.174;2023-03-16T12:44:11;5.80;;;3.63;;
1204;SDS011;592;48.764;9.174;2023-03-16T12:46:47;5.13;;;3.30;;
1204;SDS011;592;48.764;9.174;2023-03-16T12:49:20;6.50;;;3.53;;
1204;SDS011;592;48.764;9.174;2023-03-16T12:51:56;8.00;;;4.03;;
1204;SDS011;592;48.764;9.174;2023-03-16T12:54:24;6.13;;;3.27;;
1204;SDS011;592;48.764;9.174;2023-03-16T12:56:51;7.17;;;3.50;;
1204;SDS011;592;48.764;9.174;2023-03-16T12:59:24;5.40;;;3.37;;
1204;SDS011;592;48.764;9.174;2023-03-16T13:02:03;7.80;;;4.50;;
1204;SDS011;592;48.764;9.174;2023-03-16T13:04:37;8.93;;;3.90;;
1204;SDS011;592;48.764;9.174;2023-03-16T13:07:07;8.37;;;4.00;;
1204;SDS011;592;48.764;9.174;2023-03-16T13:09:41;7.83;;;4.10;;
1204;SDS011;592;48.764;9.174;2023-03-16T13:12:20;7.20;;;4.03;;
1204;SDS011;592;48.764;9.174;2023-03-16T13:14:49;7.80;;;4.10;;
1204;SDS011;592;48.764;9.174;2023-03-16T13:17:23;6.87;;;4.63;;
1204;SDS011;592;48.764;9.174;2023-03-16T13:22:50;12.20;;;4.00;;
1204;SDS011;592;48.764;9.174;2023-03-16T13:25:34;7.13;;;3.70;;
1204;SDS011;592;48.764;9.174;2023-03-16T13:28:07;6.93;;;4.17;;
1204;SDS011;592;48.764;9.174;2023-03-16T13:30:39;7.30;;;3.60;;
1204;SDS011;592;48.764;9.174;2023-03-16T13:33:16;6.30;;;4.00;;
1204;SDS011;592;48.764;9.174;2023-03-16T13:35:46;5.20;;;2.90;;
1204;SDS011;592;48.764;9.174;2023-03-16T13:38:15;6.70;;;3.27;;
1204;SDS011;592;48.764;9.174;2023-03-16T13:40:46;5.03;;;3.00;;
1204;SDS011;592;48.764;9.174;2023-03-16T13:43:16;6.33;;;3.47;;
1204;SDS011;592;48.764;9.174;2023-03-16T13:45:44;5.80;;;3.33;;
1204;SDS011;592;48.764;9.174;2023-03-16T13:48:12;6.70;;;3.57;;
1204;SDS011;592;48.764;9.174;2023-03-16T13:50:40;4.83;;;3.00;;
1204;SDS011;592;48.764;9.174;2023-03-16T13:53:10;6.27;;;3.40;;
1204;SDS011;592;48.764;9.174;2023-03-16T13:55:39;4.80;;;2.70;;
1204;SDS011;592;48.764;9.174;2023-03-16T13:58:12;4.87;;;2.53;;
1204;SDS011;592;48.764;9.174;2023-03-16T14:00:46;5.73;;;2.50;;
1204;SDS011;592;48.764;9.174;2023-03-16T14:03:13;4.53;;;2.27;;
1204;SDS011;592;48.764;9.174;2023-03-16T14:05:43;4.40;;;2.60;;
1204;SDS011;592;48.764;9.174;2023-03-16T14:08:17;6.77;;;3.30;;
1204;SDS011;592;48.764;9.174;2023-03-16T14:10:45;4.83;;;2.53;;
1204;SDS011;592;48.764;9.174;2023-03-16T14:13:23;4.13;;;2.47;;
1204;SDS011;592;48.764;9.174;2023-03-16T14:15:58;4.00;;;2.20;;
1204;SDS011;592;48.764;9.174;2023-03-16T14:18:29;4.13;;;2.40;;
1204;SDS011;592;48.764;9.174;2023-03-16T14:21:03;5.03;;;2.60;;
1204;SDS011;592;48.764;9.174;2023-03-16T14:23:33;4.90;;;2.50;;
1204;SDS011;592;48.764;9.174;2023-03-16T14:26:02;4.90;;;2.33;;
1204;SDS011;592;48.764;9.174;2023-03-16T14:28:31;5.17;;;2.80;;
1204;SDS011;592;48.764;9.174;2023-03-16T14:31:03;4.37;;;2.10;;
1204;SDS011;592;48.764;9.174;2023-03-16T14:33:31;5.00;;;3.17;;
1204;SDS011;592;48.764;9.174;2023-03-16T14:36:08;14.43;;;2.83;;
1204;SDS011;592;48.764;9.174;2023-03-16T14:38:38;9.20;;;3.00;;
1204;SDS011;592;48.764;9.174;2023-03-16T14:41:11;5.40;;;3.57;;
1204;SDS011;592;48.764;9.174;2023-03-16T14:43:47;5.70;;;2.93;;
1204;SDS011;592;48.764;9.174;2023-03-16T14:46:16;7.07;;;2.80;;
1204;SDS011;592;48.764;9.174;2023-03-16T14:48:49;5.40;;;2.77;;
1204;SDS011;592;48.764;9.174;2023-03-16T14:51:17;4.63;;;2.40;;
1204;SDS011;592;48.764;9.174;2023-03-16T14:53:44;4.20;;;2.57;;
1204;SDS011;592;48.764;9.174;2023-03-16T14:56:11;4.40;;;2.70;;
1204;SDS011;592;48.764;9.174;2023-03-16T14:58:38;5.20;;;3.10;;
1204;SDS011;592;48.764;9.174;2023-03-16T15:01:05;5.50;;;3.00;;
1204;SDS011;592;48.764;9.174;2023-03-16T15:03:35;4.70;;;2.90;;
1204;SDS011;592;48.764;9.174;2023-03-16T15:06:02;5.07;;;2.93;;
1204;SDS011;592;48.764;9.174;2023-03-16T15:08:30;5.73;;;2.70;;
1204;SDS011;592;48.764;9.174;2023-03-16T15:11:06;5.37;;;2.57;;
1204;SDS011;592;48.764;9.174;2023-03-16T15:13:33;5.07;;;2.57;;
1204;SDS011;592;48.764;9.174;2023-03-16T15:16:17;7.87;;;2.70;;
1204;SDS011;592;48.764;9.174;2023-03-16T15:18:45;4.90;;;2.50;;
1204;SDS011;592;48.764;9.174;2023-03-16T15:21:13;5.10;;;2.53;;
1204;SDS011;592;48.764;9.174;2023-03-16T15:23:43;7.07;;;2.70;;
1204;SDS011;592;48.764;9.174;2023-03-16T15:26:10;3.83;;;2.10;;
1204;SDS011;592;48.764;9.174;2023-03-16T15:28:38;5.30;;;2.70;;
1204;SDS011;592;48.764;9.174;2023-03-16T15:31:05;4.00;;;2.20;;
1204;SDS011;592;48.764;9.174;2023-03-16T15:33:32;4.83;;;2.37;;